sensor_id;sensor_type;location;lat;lon;timestamp;P1;durP1;ratioP1;P2;durP2;ratioP2
35330;SDS011;21441;52.190;20.910;2023-03-09T00:00:53;14.10;;;8.95;;
35330;SDS011;21441;52.190;20.910;2023-03-09T00:03:22;16.58;;;10.05;;
35330;SDS011;21441;52.190;20.910;2023-03-09T00:05:53;16.85;;;9.63;;
35330;SDS011;21441;52.190;20.910;2023-03-09T00:08:21;13.55;;;9.65;;
35330;SDS011;21441;52.190;20.910;2023-03-09T00:10:50;13.98;;;8.57;;
35330;SDS011;21441;52.190;20.910;2023-03-09T00:13:18;15.55;;;9.63;;
35330;SDS011;21441;52.190;20.910;2023-03-09T00:15:46;12.32;;;8.32;;
35330;SDS011;21441;52.190;20.910;2023-03-09T00:18:16;13.05;;;8.02;;
35330;SDS011;21441;52.190;20.910;2023-03-09T00:20:44;14.82;;;9.35;;
35330;SDS011;21441;52.190;20.910;2023-03-09T00:23:11;14.45;;;8.30;;
35330;SDS011;21441;52.190;20.910;2023-03-09T00:25:39;15.73;;;8.52;;
35330;SDS011;21441;52.190;20.910;2023-03-09T00:28:08;17.98;;;8.73;;
35330;SDS011;21441;52.190;20.910;2023-03-09T00:30:35;15.27;;;9.25;;
35330;SDS011;21441;52.190;20.910;2023-03-09T00:33:03;14.57;;;8.55;;
35330;SDS011;21441;52.190;20.910;2023-03-09T00:35:34;14.55;;;7.95;;
35330;SDS011;21441;52.190;20.910;2023-03-09T00:38:02;14.90;;;8.63;;
35330;SDS011;21441;52.190;20.910;2023-03-09T00:40:30;14.27;;;7.75;;
35330;SDS011;21441;52.190;20.910;2023-03-09T00:42:57;13.10;;;8.77;;
35330;SDS011;21441;52.190;20.910;2023-03-09T00:45:26;15.52;;;8.80;;
35330;SDS011;21441;52.190;20.910;2023-03-09T00:47:53;14.75;;;9.23;;
35330;SDS011;21441;52.190;20.910;2023-03-09T00:50:21;15.05;;;8.35;;
35330;SDS011;21441;52.190;20.910;2023-03-09T00:52:48;11.98;;;8.00;;
35330;SDS011;21441;52.190;20.910;2023-03-09T00:55:16;19.23;;;10.32;;
35330;SDS011;21441;52.190;20.910;2023-03-09T00:57:43;16.73;;;8.90;;
35330;SDS011;21441;52.190;20.910;2023-03-09T01:00:11;15.38;;;8.50;;
35330;SDS011;21441;52.190;20.910;2023-03-09T01:02:40;15.73;;;9.85;;
35330;SDS011;21441;52.190;20.910;2023-03-09T01:05:08;15.77;;;9.02;;
35330;SDS011;21441;52.190;20.910;2023-03-09T01:07:36;16.90;;;9.23;;
35330;SDS011;21441;52.190;20.910;2023-03-09T01:10:04;19.58;;;9.93;;
35330;SDS011;21441;52.190;20.910;2023-03-09T01:12:34;17.40;;;10.25;;
35330;SDS011;21441;52.190;20.910;2023-03-09T01:15:03;16.83;;;9.80;;
35330;SDS011;21441;52.190;20.910;2023-03-09T01:17:31;18.40;;;10.15;;
35330;SDS011;21441;52.190;20.910;2023-03-09T01:20:00;19.55;;;10.60;;
35330;SDS011;21441;52.190;20.910;2023-03-09T01:22:27;13.00;;;9.40;;
35330;SDS011;21441;52.190;20.910;2023-03-09T01:24:55;16.35;;;8.48;;
35330;SDS011;21441;52.190;20.910;2023-03-09T01:27:22;17.63;;;10.13;;
35330;SDS011;21441;52.190;20.910;2023-03-09T01:29:50;17.38;;;10.48;;
35330;SDS011;21441;52.190;20.910;2023-03-09T01:32:17;18.95;;;10.68;;
35330;SDS011;21441;52.190;20.910;2023-03-09T01:34:44;15.88;;;8.70;;
35330;SDS011;21441;52.190;20.910;2023-03-09T01:37:13;16.83;;;10.27;;
35330;SDS011;21441;52.190;20.910;2023-03-09T01:39:41;15.63;;;9.30;;
35330;SDS011;21441;52.190;20.910;2023-03-09T01:42:08;18.40;;;10.10;;
35330;SDS011;21441;52.190;20.910;2023-03-09T01:44:37;14.95;;;9.68;;
35330;SDS011;21441;52.190;20.910;2023-03-09T01:47:04;15.80;;;9.70;;
35330;SDS011;21441;52.190;20.910;2023-03-09T01:49:34;16.10;;;9.48;;
35330;SDS011;21441;52.190;20.910;2023-03-09T01:52:06;15.10;;;9.43;;
35330;SDS011;21441;52.190;20.910;2023-03-09T01:54:41;15.60;;;9.52;;
35330;SDS011;21441;52.190;20.910;2023-03-09T01:57:14;18.60;;;10.60;;
35330;SDS011;21441;52.190;20.910;2023-03-09T01:59:47;15.38;;;9.65;;
35330;SDS011;21441;52.190;20.910;2023-03-09T02:02:18;22.08;;;11.15;;
35330;SDS011;21441;52.190;20.910;2023-03-09T02:04:48;17.88;;;10.57;;
35330;SDS011;21441;52.190;20.910;2023-03-09T02:07:20;19.45;;;10.27;;
35330;SDS011;21441;52.190;20.910;2023-03-09T02:09:51;17.40;;;11.25;;
35330;SDS011;21441;52.190;20.910;2023-03-09T02:12:21;18.02;;;11.48;;
35330;SDS011;21441;52.190;20.910;2023-03-09T02:14:49;17.75;;;11.13;;
35330;SDS011;21441;52.190;20.910;2023-03-09T02:17:18;16.92;;;10.50;;
35330;SDS011;21441;52.190;20.910;2023-03-09T02:19:54;17.33;;;10.80;;
35330;SDS011;21441;52.190;20.910;2023-03-09T02:22:32;17.90;;;9.73;;
35330;SDS011;21441;52.190;20.910;2023-03-09T02:25:04;17.52;;;11.07;;
35330;SDS011;21441;52.190;20.910;2023-03-09T02:27:41;15.70;;;9.75;;
35330;SDS011;21441;52.190;20.910;2023-03-09T02:30:09;18.30;;;11.20;;
35330;SDS011;21441;52.190;20.910;2023-03-09T02:32:37;17.67;;;11.40;;
35330;SDS011;21441;52.190;20.910;2023-03-09T02:35:05;17.92;;;10.23;;
35330;SDS011;21441;52.190;20.910;2023-03-09T02:37:35;16.42;;;9.23;;
35330;SDS011;21441;52.190;20.910;2023-03-09T02:40:05;18.80;;;10.88;;
35330;SDS011;21441;52.190;20.910;2023-03-09T02:42:38;16.58;;;10.27;;
35330;SDS011;21441;52.190;20.910;2023-03-09T02:45:07;14.90;;;9.00;;
35330;SDS011;21441;52.190;20.910;2023-03-09T02:47:37;20.30;;;10.27;;
35330;SDS011;21441;52.190;20.910;2023-03-09T02:50:05;18.65;;;10.10;;
35330;SDS011;21441;52.190;20.910;2023-03-09T02:52:33;17.48;;;10.95;;
35330;SDS011;21441;52.190;20.910;2023-03-09T02:55:00;16.73;;;9.90;;
35330;SDS011;21441;52.190;20.910;2023-03-09T02:57:28;16.98;;;10.38;;
35330;SDS011;21441;52.190;20.910;2023-03-09T02:59:55;17.60;;;9.77;;
35330;SDS011;21441;52.190;20.910;2023-03-09T03:02:25;16.05;;;8.43;;
35330;SDS011;21441;52.190;20.910;2023-03-09T03:04:52;19.23;;;9.50;;
35330;SDS011;21441;52.190;20.910;2023-03-09T03:07:20;19.48;;;11.10;;
35330;SDS011;21441;52.190;20.910;2023-03-09T03:09:48;16.83;;;10.93;;
35330;SDS011;21441;52.190;20.910;2023-03-09T03:12:15;17.42;;;10.18;;
35330;SDS011;21441;52.190;20.910;2023-03-09T03:14:43;18.95;;;11.30;;
35330;SDS011;21441;52.190;20.910;2023-03-09T03:17:11;20.05;;;11.65;;
35330;SDS011;21441;52.190;20.910;2023-03-09T03:19:40;17.42;;;11.35;;
35330;SDS011;21441;52.190;20.910;2023-03-09T03:22:07;19.85;;;11.50;;
35330;SDS011;21441;52.190;20.910;2023-03-09T03:24:35;21.13;;;12.57;;
35330;SDS011;21441;52.190;20.910;2023-03-09T03:27:03;19.48;;;11.38;;
35330;SDS011;21441;52.190;20.910;2023-03-09T03:29:30;19.83;;;12.25;;
35330;SDS011;21441;52.190;20.910;2023-03-09T03:31:57;21.25;;;10.70;;
35330;SDS011;21441;52.190;20.910;2023-03-09T03:34:25;17.67;;;11.13;;
35330;SDS011;21441;52.190;20.910;2023-03-09T03:36:54;17.83;;;11.18;;
35330;SDS011;21441;52.190;20.910;2023-03-09T03:39:21;19.15;;;10.80;;
35330;SDS011;21441;52.190;20.910;2023-03-09T03:41:49;18.20;;;10.35;;
35330;SDS011;21441;52.190;20.910;2023-03-09T03:44:16;15.48;;;8.98;;
35330;SDS011;21441;52.190;20.910;2023-03-09T03:46:44;13.82;;;8.48;;
35330;SDS011;21441;52.190;20.910;2023-03-09T03:49:11;17.27;;;11.00;;
35330;SDS011;21441;52.190;20.910;2023-03-09T03:51:38;16.15;;;10.05;;
35330;SDS011;21441;52.190;20.910;2023-03-09T03:54:07;16.17;;;9.13;;
35330;SDS011;21441;52.190;20.910;2023-03-09T03:56:34;22.02;;;10.68;;
35330;SDS011;21441;52.190;20.910;2023-03-09T03:59:02;14.07;;;9.60;;
35330;SDS011;21441;52.190;20.910;2023-03-09T04:01:30;17.55;;;9.10;;
35330;SDS011;21441;52.190;20.910;2023-03-09T04:03:57;16.95;;;10.48;;
35330;SDS011;21441;52.190;20.910;2023-03-09T04:06:24;15.35;;;9.23;;
35330;SDS011;21441;52.190;20.910;2023-03-09T04:08:52;16.17;;;10.07;;
35330;SDS011;21441;52.190;20.910;2023-03-09T04:11:21;18.15;;;9.93;;
35330;SDS011;21441;52.190;20.910;2023-03-09T04:13:48;14.75;;;9.38;;
35330;SDS011;21441;52.190;20.910;2023-03-09T04:16:16;18.35;;;10.10;;
35330;SDS011;21441;52.190;20.910;2023-03-09T04:18:43;16.45;;;9.98;;
35330;SDS011;21441;52.190;20.910;2023-03-09T04:21:11;13.52;;;8.35;;
35330;SDS011;21441;52.190;20.910;2023-03-09T04:23:38;14.40;;;8.82;;
35330;SDS011;21441;52.190;20.910;2023-03-09T04:26:05;13.13;;;8.35;;
35330;SDS011;21441;52.190;20.910;2023-03-09T04:28:34;15.20;;;8.63;;
35330;SDS011;21441;52.190;20.910;2023-03-09T04:31:01;14.93;;;8.15;;
35330;SDS011;21441;52.190;20.910;2023-03-09T04:33:29;14.63;;;8.00;;
35330;SDS011;21441;52.190;20.910;2023-03-09T04:35:56;12.98;;;7.13;;
35330;SDS011;21441;52.190;20.910;2023-03-09T04:38:23;13.70;;;7.53;;
35330;SDS011;21441;52.190;20.910;2023-03-09T04:40:51;11.88;;;6.78;;
35330;SDS011;21441;52.190;20.910;2023-03-09T04:43:18;11.05;;;6.90;;
35330;SDS011;21441;52.190;20.910;2023-03-09T04:45:47;9.93;;;6.75;;
35330;SDS011;21441;52.190;20.910;2023-03-09T04:48:14;11.15;;;6.05;;
35330;SDS011;21441;52.190;20.910;2023-03-09T04:50:43;9.95;;;6.68;;
35330;SDS011;21441;52.190;20.910;2023-03-09T04:53:10;12.45;;;6.43;;
35330;SDS011;21441;52.190;20.910;2023-03-09T04:55:38;10.20;;;5.97;;
35330;SDS011;21441;52.190;20.910;2023-03-09T04:58:05;10.68;;;6.90;;
35330;SDS011;21441;52.190;20.910;2023-03-09T05:00:33;10.20;;;7.03;;
35330;SDS011;21441;52.190;20.910;2023-03-09T05:03:02;11.98;;;6.95;;
35330;SDS011;21441;52.190;20.910;2023-03-09T05:05:29;11.27;;;7.03;;
35330;SDS011;21441;52.190;20.910;2023-03-09T05:07:57;12.57;;;7.28;;
35330;SDS011;21441;52.190;20.910;2023-03-09T05:10:24;11.75;;;7.97;;
35330;SDS011;21441;52.190;20.910;2023-03-09T05:12:51;12.45;;;7.80;;
35330;SDS011;21441;52.190;20.910;2023-03-09T05:15:19;15.60;;;7.38;;
35330;SDS011;21441;52.190;20.910;2023-03-09T05:17:46;11.35;;;6.47;;
35330;SDS011;21441;52.190;20.910;2023-03-09T05:20:15;12.80;;;8.27;;
35330;SDS011;21441;52.190;20.910;2023-03-09T05:22:43;12.45;;;6.65;;
35330;SDS011;21441;52.190;20.910;2023-03-09T05:25:11;12.95;;;7.18;;
35330;SDS011;21441;52.190;20.910;2023-03-09T05:27:38;12.85;;;8.02;;
35330;SDS011;21441;52.190;20.910;2023-03-09T05:30:06;15.15;;;7.70;;
35330;SDS011;21441;52.190;20.910;2023-03-09T05:32:34;13.20;;;9.00;;
35330;SDS011;21441;52.190;20.910;2023-03-09T05:35:02;13.40;;;7.50;;
35330;SDS011;21441;52.190;20.910;2023-03-09T05:37:33;12.65;;;8.48;;
35330;SDS011;21441;52.190;20.910;2023-03-09T05:40:01;14.23;;;9.40;;
35330;SDS011;21441;52.190;20.910;2023-03-09T05:42:30;17.58;;;9.35;;
35330;SDS011;21441;52.190;20.910;2023-03-09T05:44:57;13.60;;;8.77;;
35330;SDS011;21441;52.190;20.910;2023-03-09T05:47:25;18.10;;;9.52;;
35330;SDS011;21441;52.190;20.910;2023-03-09T05:49:53;17.90;;;9.55;;
35330;SDS011;21441;52.190;20.910;2023-03-09T05:52:20;18.33;;;10.98;;
35330;SDS011;21441;52.190;20.910;2023-03-09T05:54:49;17.33;;;10.00;;
35330;SDS011;21441;52.190;20.910;2023-03-09T05:57:16;19.05;;;10.85;;
35330;SDS011;21441;52.190;20.910;2023-03-09T05:59:46;12.73;;;7.72;;
35330;SDS011;21441;52.190;20.910;2023-03-09T06:02:13;15.68;;;8.18;;
35330;SDS011;21441;52.190;20.910;2023-03-09T06:04:41;18.63;;;10.25;;
35330;SDS011;21441;52.190;20.910;2023-03-09T06:07:08;18.13;;;9.57;;
35330;SDS011;21441;52.190;20.910;2023-03-09T06:09:36;16.38;;;9.10;;
35330;SDS011;21441;52.190;20.910;2023-03-09T06:12:05;17.23;;;10.20;;
35330;SDS011;21441;52.190;20.910;2023-03-09T06:14:32;16.60;;;9.50;;
35330;SDS011;21441;52.190;20.910;2023-03-09T06:17:00;15.88;;;9.65;;
35330;SDS011;21441;52.190;20.910;2023-03-09T06:19:27;12.60;;;8.20;;
35330;SDS011;21441;52.190;20.910;2023-03-09T06:21:55;15.80;;;9.68;;
35330;SDS011;21441;52.190;20.910;2023-03-09T06:24:22;16.90;;;10.32;;
35330;SDS011;21441;52.190;20.910;2023-03-09T06:26:49;12.63;;;7.95;;
35330;SDS011;21441;52.190;20.910;2023-03-09T06:29:18;11.25;;;7.30;;
35330;SDS011;21441;52.190;20.910;2023-03-09T06:31:46;15.30;;;8.57;;
35330;SDS011;21441;52.190;20.910;2023-03-09T06:34:13;15.55;;;10.27;;
35330;SDS011;21441;52.190;20.910;2023-03-09T06:36:40;16.15;;;9.40;;
35330;SDS011;21441;52.190;20.910;2023-03-09T06:39:08;16.75;;;10.07;;
35330;SDS011;21441;52.190;20.910;2023-03-09T06:41:36;16.88;;;10.40;;
35330;SDS011;21441;52.190;20.910;2023-03-09T06:44:04;14.55;;;8.90;;
35330;SDS011;21441;52.190;20.910;2023-03-09T06:46:33;9.88;;;7.43;;
35330;SDS011;21441;52.190;20.910;2023-03-09T06:49:00;17.77;;;10.30;;
35330;SDS011;21441;52.190;20.910;2023-03-09T06:51:27;14.15;;;9.60;;
35330;SDS011;21441;52.190;20.910;2023-03-09T06:53:55;17.17;;;10.13;;
35330;SDS011;21441;52.190;20.910;2023-03-09T06:56:23;14.23;;;9.02;;
35330;SDS011;21441;52.190;20.910;2023-03-09T06:58:52;16.67;;;9.23;;
35330;SDS011;21441;52.190;20.910;2023-03-09T07:01:20;13.87;;;8.93;;
35330;SDS011;21441;52.190;20.910;2023-03-09T07:03:49;15.98;;;10.70;;
35330;SDS011;21441;52.190;20.910;2023-03-09T07:06:16;15.77;;;9.57;;
35330;SDS011;21441;52.190;20.910;2023-03-09T07:08:44;12.55;;;7.53;;
35330;SDS011;21441;52.190;20.910;2023-03-09T07:11:11;16.33;;;10.18;;
35330;SDS011;21441;52.190;20.910;2023-03-09T07:13:38;12.32;;;7.93;;
35330;SDS011;21441;52.190;20.910;2023-03-09T07:16:06;14.52;;;8.98;;
35330;SDS011;21441;52.190;20.910;2023-03-09T07:18:34;16.60;;;9.10;;
35330;SDS011;21441;52.190;20.910;2023-03-09T07:21:03;15.25;;;9.80;;
35330;SDS011;21441;52.190;20.910;2023-03-09T07:23:31;19.08;;;10.25;;
35330;SDS011;21441;52.190;20.910;2023-03-09T07:25:59;12.90;;;8.35;;
35330;SDS011;21441;52.190;20.910;2023-03-09T07:28:27;14.25;;;9.07;;
35330;SDS011;21441;52.190;20.910;2023-03-09T07:30:55;11.52;;;8.35;;
35330;SDS011;21441;52.190;20.910;2023-03-09T07:33:23;14.38;;;8.65;;
35330;SDS011;21441;52.190;20.910;2023-03-09T07:35:50;14.32;;;9.45;;
35330;SDS011;21441;52.190;20.910;2023-03-09T07:38:19;13.07;;;7.70;;
35330;SDS011;21441;52.190;20.910;2023-03-09T07:40:46;12.45;;;8.52;;
35330;SDS011;21441;52.190;20.910;2023-03-09T07:43:14;12.38;;;8.93;;
35330;SDS011;21441;52.190;20.910;2023-03-09T07:45:41;14.50;;;9.13;;
35330;SDS011;21441;52.190;20.910;2023-03-09T07:48:08;13.38;;;8.38;;
35330;SDS011;21441;52.190;20.910;2023-03-09T07:50:36;13.63;;;8.52;;
35330;SDS011;21441;52.190;20.910;2023-03-09T07:53:04;11.40;;;8.05;;
35330;SDS011;21441;52.190;20.910;2023-03-09T07:55:33;12.35;;;8.88;;
35330;SDS011;21441;52.190;20.910;2023-03-09T07:58:01;10.23;;;6.70;;
35330;SDS011;21441;52.190;20.910;2023-03-09T08:00:28;9.07;;;6.38;;
35330;SDS011;21441;52.190;20.910;2023-03-09T08:02:58;11.60;;;7.07;;
35330;SDS011;21441;52.190;20.910;2023-03-09T08:05:26;8.13;;;6.15;;
35330;SDS011;21441;52.190;20.910;2023-03-09T08:07:53;9.60;;;7.25;;
35330;SDS011;21441;52.190;20.910;2023-03-09T08:10:21;10.57;;;6.82;;
35330;SDS011;21441;52.190;20.910;2023-03-09T08:12:50;12.48;;;6.90;;
35330;SDS011;21441;52.190;20.910;2023-03-09T08:15:18;10.68;;;7.50;;
35330;SDS011;21441;52.190;20.910;2023-03-09T08:17:46;10.27;;;6.65;;
35330;SDS011;21441;52.190;20.910;2023-03-09T08:20:13;10.73;;;8.02;;
35330;SDS011;21441;52.190;20.910;2023-03-09T08:22:41;11.80;;;8.15;;
35330;SDS011;21441;52.190;20.910;2023-03-09T08:25:09;13.77;;;8.77;;
35330;SDS011;21441;52.190;20.910;2023-03-09T08:27:37;11.30;;;6.93;;
35330;SDS011;21441;52.190;20.910;2023-03-09T08:30:07;15.45;;;8.07;;
35330;SDS011;21441;52.190;20.910;2023-03-09T08:32:39;11.30;;;6.80;;
35330;SDS011;21441;52.190;20.910;2023-03-09T08:35:07;10.18;;;7.30;;
35330;SDS011;21441;52.190;20.910;2023-03-09T08:37:35;11.70;;;8.00;;
35330;SDS011;21441;52.190;20.910;2023-03-09T08:40:02;9.85;;;7.80;;
35330;SDS011;21441;52.190;20.910;2023-03-09T08:42:31;10.90;;;8.40;;
35330;SDS011;21441;52.190;20.910;2023-03-09T08:44:59;11.00;;;7.88;;
35330;SDS011;21441;52.190;20.910;2023-03-09T08:47:28;10.45;;;7.90;;
35330;SDS011;21441;52.190;20.910;2023-03-09T08:49:55;11.68;;;7.53;;
35330;SDS011;21441;52.190;20.910;2023-03-09T08:52:22;10.38;;;7.50;;
35330;SDS011;21441;52.190;20.910;2023-03-09T08:54:50;8.55;;;6.30;;
35330;SDS011;21441;52.190;20.910;2023-03-09T08:57:18;9.23;;;6.57;;
35330;SDS011;21441;52.190;20.910;2023-03-09T08:59:46;8.02;;;6.30;;
35330;SDS011;21441;52.190;20.910;2023-03-09T09:02:14;11.75;;;7.22;;
35330;SDS011;21441;52.190;20.910;2023-03-09T09:04:43;6.63;;;4.88;;
35330;SDS011;21441;52.190;20.910;2023-03-09T09:07:11;12.23;;;6.63;;
35330;SDS011;21441;52.190;20.910;2023-03-09T09:09:41;8.43;;;5.20;;
35330;SDS011;21441;52.190;20.910;2023-03-09T09:12:09;5.10;;;3.85;;
35330;SDS011;21441;52.190;20.910;2023-03-09T09:14:37;6.85;;;4.43;;
35330;SDS011;21441;52.190;20.910;2023-03-09T09:17:06;7.90;;;4.22;;
35330;SDS011;21441;52.190;20.910;2023-03-09T09:19:34;6.60;;;3.83;;
35330;SDS011;21441;52.190;20.910;2023-03-09T09:22:03;6.85;;;3.72;;
35330;SDS011;21441;52.190;20.910;2023-03-09T09:24:31;9.65;;;5.07;;
35330;SDS011;21441;52.190;20.910;2023-03-09T09:27:02;8.35;;;5.35;;
35330;SDS011;21441;52.190;20.910;2023-03-09T09:29:30;10.65;;;6.18;;
35330;SDS011;21441;52.190;20.910;2023-03-09T09:31:58;8.27;;;6.13;;
35330;SDS011;21441;52.190;20.910;2023-03-09T09:34:25;9.63;;;5.90;;
35330;SDS011;21441;52.190;20.910;2023-03-09T09:36:56;9.38;;;5.82;;
35330;SDS011;21441;52.190;20.910;2023-03-09T09:39:27;6.88;;;5.43;;
35330;SDS011;21441;52.190;20.910;2023-03-09T09:41:55;6.25;;;5.35;;
35330;SDS011;21441;52.190;20.910;2023-03-09T09:44:26;8.63;;;5.57;;
35330;SDS011;21441;52.190;20.910;2023-03-09T09:46:58;7.80;;;5.30;;
35330;SDS011;21441;52.190;20.910;2023-03-09T09:49:29;6.57;;;4.90;;
35330;SDS011;21441;52.190;20.910;2023-03-09T09:52:02;7.93;;;5.13;;
35330;SDS011;21441;52.190;20.910;2023-03-09T09:54:40;9.15;;;4.68;;
35330;SDS011;21441;52.190;20.910;2023-03-09T09:57:17;7.45;;;5.20;;
35330;SDS011;21441;52.190;20.910;2023-03-09T09:59:51;7.25;;;4.85;;
35330;SDS011;21441;52.190;20.910;2023-03-09T10:02:36;7.93;;;4.90;;
35330;SDS011;21441;52.190;20.910;2023-03-09T10:05:11;10.30;;;5.93;;
35330;SDS011;21441;52.190;20.910;2023-03-09T10:07:43;7.40;;;5.25;;
35330;SDS011;21441;52.190;20.910;2023-03-09T10:10:13;8.73;;;4.90;;
35330;SDS011;21441;52.190;20.910;2023-03-09T10:12:46;9.80;;;5.55;;
35330;SDS011;21441;52.190;20.910;2023-03-09T10:15:14;7.53;;;4.50;;
35330;SDS011;21441;52.190;20.910;2023-03-09T10:17:49;7.63;;;5.07;;
35330;SDS011;21441;52.190;20.910;2023-03-09T10:20:22;8.65;;;5.10;;
35330;SDS011;21441;52.190;20.910;2023-03-09T10:22:54;11.05;;;5.82;;
35330;SDS011;21441;52.190;20.910;2023-03-09T10:25:25;7.32;;;5.45;;
35330;SDS011;21441;52.190;20.910;2023-03-09T10:27:55;4.90;;;3.85;;
35330;SDS011;21441;52.190;20.910;2023-03-09T10:30:34;6.45;;;4.75;;
35330;SDS011;21441;52.190;20.910;2023-03-09T10:33:05;9.98;;;5.35;;
35330;SDS011;21441;52.190;20.910;2023-03-09T10:35:42;6.93;;;4.32;;
35330;SDS011;21441;52.190;20.910;2023-03-09T10:40:45;8.65;;;5.20;;
35330;SDS011;21441;52.190;20.910;2023-03-09T10:43:17;7.88;;;5.28;;
35330;SDS011;21441;52.190;20.910;2023-03-09T10:45:49;7.00;;;4.45;;
35330;SDS011;21441;52.190;20.910;2023-03-09T10:48:20;6.90;;;4.55;;
35330;SDS011;21441;52.190;20.910;2023-03-09T10:50:55;7.25;;;4.05;;
35330;SDS011;21441;52.190;20.910;2023-03-09T10:53:26;6.15;;;3.97;;
35330;SDS011;21441;52.190;20.910;2023-03-09T10:56:03;6.85;;;4.63;;
35330;SDS011;21441;52.190;20.910;2023-03-09T10:58:34;5.72;;;4.65;;
35330;SDS011;21441;52.190;20.910;2023-03-09T11:01:02;5.70;;;4.30;;
35330;SDS011;21441;52.190;20.910;2023-03-09T11:03:33;7.30;;;3.60;;
35330;SDS011;21441;52.190;20.910;2023-03-09T11:08:58;4.22;;;3.40;;
35330;SDS011;21441;52.190;20.910;2023-03-09T11:11:33;6.63;;;3.95;;
35330;SDS011;21441;52.190;20.910;2023-03-09T11:14:01;6.43;;;4.23;;
35330;SDS011;21441;52.190;20.910;2023-03-09T11:16:30;4.03;;;3.10;;
35330;SDS011;21441;52.190;20.910;2023-03-09T11:19:05;5.97;;;3.67;;
35330;SDS011;21441;52.190;20.910;2023-03-09T11:21:38;5.43;;;3.38;;
35330;SDS011;21441;52.190;20.910;2023-03-09T11:24:11;8.48;;;4.32;;
35330;SDS011;21441;52.190;20.910;2023-03-09T11:26:43;6.32;;;3.65;;
35330;SDS011;21441;52.190;20.910;2023-03-09T11:29:18;5.05;;;3.67;;
35330;SDS011;21441;52.190;20.910;2023-03-09T11:31:51;4.85;;;3.47;;
35330;SDS011;21441;52.190;20.910;2023-03-09T11:34:20;4.72;;;2.67;;
35330;SDS011;21441;52.190;20.910;2023-03-09T11:36:53;4.78;;;3.63;;
35330;SDS011;21441;52.190;20.910;2023-03-09T11:39:27;6.43;;;3.65;;
35330;SDS011;21441;52.190;20.910;2023-03-09T11:41:59;7.82;;;3.35;;
35330;SDS011;21441;52.190;20.910;2023-03-09T11:44:36;5.07;;;3.80;;
35330;SDS011;21441;52.190;20.910;2023-03-09T11:47:10;4.85;;;3.42;;
35330;SDS011;21441;52.190;20.910;2023-03-09T11:49:50;5.00;;;3.33;;
35330;SDS011;21441;52.190;20.910;2023-03-09T11:52:24;6.47;;;3.58;;
35330;SDS011;21441;52.190;20.910;2023-03-09T11:54:56;7.38;;;4.18;;
35330;SDS011;21441;52.190;20.910;2023-03-09T11:57:27;4.60;;;3.42;;
35330;SDS011;21441;52.190;20.910;2023-03-09T11:59:58;7.68;;;3.50;;
35330;SDS011;21441;52.190;20.910;2023-03-09T12:02:33;6.65;;;3.90;;
35330;SDS011;21441;52.190;20.910;2023-03-09T12:05:11;5.22;;;4.05;;
35330;SDS011;21441;52.190;20.910;2023-03-09T12:07:41;7.87;;;4.77;;
35330;SDS011;21441;52.190;20.910;2023-03-09T12:10:20;7.82;;;5.30;;
35330;SDS011;21441;52.190;20.910;2023-03-09T12:12:54;7.70;;;4.65;;
35330;SDS011;21441;52.190;20.910;2023-03-09T12:15:30;6.15;;;4.57;;
35330;SDS011;21441;52.190;20.910;2023-03-09T12:18:01;7.28;;;5.47;;
35330;SDS011;21441;52.190;20.910;2023-03-09T12:20:32;8.35;;;4.60;;
35330;SDS011;21441;52.190;20.910;2023-03-09T12:23:03;7.60;;;5.38;;
35330;SDS011;21441;52.190;20.910;2023-03-09T12:25:31;8.60;;;5.57;;
35330;SDS011;21441;52.190;20.910;2023-03-09T12:28:01;7.18;;;5.75;;
35330;SDS011;21441;52.190;20.910;2023-03-09T12:30:30;9.32;;;6.07;;
35330;SDS011;21441;52.190;20.910;2023-03-09T12:32:59;8.13;;;5.72;;
35330;SDS011;21441;52.190;20.910;2023-03-09T12:38:30;9.13;;;6.90;;
35330;SDS011;21441;52.190;20.910;2023-03-09T12:40:58;10.10;;;6.38;;
35330;SDS011;21441;52.190;20.910;2023-03-09T12:46:37;8.45;;;5.80;;
35330;SDS011;21441;52.190;20.910;2023-03-09T12:49:26;8.55;;;4.60;;
35330;SDS011;21441;52.190;20.910;2023-03-09T12:57:21;8.00;;;4.78;;
35330;SDS011;21441;52.190;20.910;2023-03-09T12:59:50;9.93;;;4.80;;
35330;SDS011;21441;52.190;20.910;2023-03-09T13:02:26;9.77;;;4.87;;
35330;SDS011;21441;52.190;20.910;2023-03-09T13:05:20;11.18;;;5.88;;
35330;SDS011;21441;52.190;20.910;2023-03-09T13:07:52;8.57;;;5.13;;
35330;SDS011;21441;52.190;20.910;2023-03-09T13:10:23;10.60;;;5.45;;
35330;SDS011;21441;52.190;20.910;2023-03-09T13:12:54;11.93;;;7.40;;
35330;SDS011;21441;52.190;20.910;2023-03-09T13:15:25;10.05;;;6.97;;
35330;SDS011;21441;52.190;20.910;2023-03-09T13:20:49;11.45;;;6.63;;
35330;SDS011;21441;52.190;20.910;2023-03-09T13:23:17;11.90;;;7.82;;
35330;SDS011;21441;52.190;20.910;2023-03-09T13:25:47;11.50;;;7.03;;
35330;SDS011;21441;52.190;20.910;2023-03-09T13:28:37;12.85;;;5.38;;
35330;SDS011;21441;52.190;20.910;2023-03-09T13:31:20;10.00;;;5.60;;
35330;SDS011;21441;52.190;20.910;2023-03-09T13:33:52;11.63;;;6.32;;
35330;SDS011;21441;52.190;20.910;2023-03-09T13:36:21;8.40;;;4.95;;
35330;SDS011;21441;52.190;20.910;2023-03-09T13:38:51;8.73;;;5.10;;
35330;SDS011;21441;52.190;20.910;2023-03-09T13:41:22;7.40;;;4.30;;
35330;SDS011;21441;52.190;20.910;2023-03-09T13:43:53;8.75;;;4.13;;
35330;SDS011;21441;52.190;20.910;2023-03-09T13:46:24;9.68;;;3.95;;
35330;SDS011;21441;52.190;20.910;2023-03-09T13:48:55;10.65;;;4.25;;
35330;SDS011;21441;52.190;20.910;2023-03-09T13:51:37;8.75;;;4.82;;
35330;SDS011;21441;52.190;20.910;2023-03-09T13:54:20;9.55;;;5.85;;
35330;SDS011;21441;52.190;20.910;2023-03-09T13:56:59;10.23;;;6.93;;
35330;SDS011;21441;52.190;20.910;2023-03-09T13:59:42;9.25;;;5.50;;
35330;SDS011;21441;52.190;20.910;2023-03-09T14:02:14;10.10;;;5.70;;
35330;SDS011;21441;52.190;20.910;2023-03-09T14:04:46;8.93;;;5.95;;
35330;SDS011;21441;52.190;20.910;2023-03-09T14:07:14;8.30;;;5.60;;
35330;SDS011;21441;52.190;20.910;2023-03-09T14:09:48;10.10;;;5.32;;
35330;SDS011;21441;52.190;20.910;2023-03-09T14:12:21;8.98;;;5.68;;
35330;SDS011;21441;52.190;20.910;2023-03-09T14:14:53;9.55;;;6.22;;
35330;SDS011;21441;52.190;20.910;2023-03-09T14:17:23;10.23;;;5.45;;
35330;SDS011;21441;52.190;20.910;2023-03-09T14:19:52;6.55;;;3.83;;
35330;SDS011;21441;52.190;20.910;2023-03-09T14:22:25;7.55;;;5.13;;
35330;SDS011;21441;52.190;20.910;2023-03-09T14:24:54;6.72;;;5.40;;
35330;SDS011;21441;52.190;20.910;2023-03-09T14:27:23;7.65;;;4.55;;
35330;SDS011;21441;52.190;20.910;2023-03-09T14:29:52;8.73;;;4.53;;
35330;SDS011;21441;52.190;20.910;2023-03-09T14:32:21;5.63;;;3.95;;
35330;SDS011;21441;52.190;20.910;2023-03-09T14:34:53;7.55;;;4.50;;
35330;SDS011;21441;52.190;20.910;2023-03-09T14:37:23;6.85;;;5.22;;
35330;SDS011;21441;52.190;20.910;2023-03-09T14:39:53;6.22;;;4.47;;
35330;SDS011;21441;52.190;20.910;2023-03-09T14:42:25;7.93;;;4.10;;
35330;SDS011;21441;52.190;20.910;2023-03-09T14:44:59;7.28;;;3.90;;
35330;SDS011;21441;52.190;20.910;2023-03-09T14:47:31;5.85;;;4.00;;
35330;SDS011;21441;52.190;20.910;2023-03-09T14:50:00;6.50;;;4.38;;
35330;SDS011;21441;52.190;20.910;2023-03-09T14:52:28;6.75;;;4.13;;
35330;SDS011;21441;52.190;20.910;2023-03-09T14:54:57;5.45;;;3.67;;
35330;SDS011;21441;52.190;20.910;2023-03-09T14:57:26;7.65;;;4.80;;